Time;durP1;ratioP1;P1;durP2;ratioP2;P2;SDS_P1;SDS_P2;PMS_P1;PMS_P2;Temp;Humidity;BMP_temperature;BMP_pressure;BME280_temperature;BME280_humidity;BME280_pressure;Samples;Min_cycle;Max_cycle;Signal;HPM_P1;HPM_P2
2023/03/28 00:02:12;;;;;;;1.57;1.03;;;;;;;6.87;48.23;100198.50;5073469;28;20843;-77
2023/03/28 00:04:37;;;;;;;6.40;1.25;;;;;;;6.73;48.30;100192.00;5073190;28;20371;-76
2023/03/28 00:07:04;;;;;;;1.27;0.83;;;;;;;6.44;49.41;100203.72;5073733;28;20398;-76
2023/03/28 00:09:30;;;;;;;1.50;1.00;;;;;;;6.19;50.22;100212.44;5073343;28;20382;-76
2023/03/28 00:11:55;;;;;;;1.73;1.20;;;;;;;6.06;50.74;100205.78;5073337;28;20436;-76
2023/03/28 00:14:21;;;;;;;1.60;1.03;;;;;;;5.98;51.15;100218.03;5071820;28;20443;-76
2023/03/28 00:16:47;;;;;;;1.88;1.58;;;;;;;6.24;51.19;100210.19;5073265;28;20799;-76
2023/03/28 00:19:18;;;;;;;1.40;1.27;;;;;;;6.03;51.34;100214.00;5071826;28;20410;-76
2023/03/28 00:21:46;;;;;;;2.30;1.75;;;;;;;6.25;51.19;100223.19;5073274;28;20374;-76
2023/03/28 00:24:15;;;;;;;3.35;2.00;;;;;;;6.44;51.13;100216.88;5073669;28;20375;-76
2023/03/28 00:26:42;;;;;;;2.88;1.60;;;;;;;6.21;51.23;100218.38;5073186;28;20389;-77
2023/03/28 00:29:14;;;;;;;4.57;2.40;;;;;;;6.42;51.03;100225.94;5073388;28;20375;-78
2023/03/28 00:31:40;;;;;;;4.10;1.60;;;;;;;6.24;51.17;100220.72;5072916;28;20373;-77
2023/03/28 00:34:06;;;;;;;1.88;1.65;;;;;;;6.38;50.95;100228.03;5071771;28;20383;-76
2023/03/28 00:36:33;;;;;;;2.23;1.60;;;;;;;6.38;50.84;100229.84;5072824;28;20878;-77
2023/03/28 00:39:00;;;;;;;2.03;1.67;;;;;;;6.53;50.87;100238.00;5072828;28;20406;-77
2023/03/28 00:41:30;;;;;;;2.17;1.40;;;;;;;6.79;50.45;100235.34;5072851;28;20379;-76
2023/03/28 00:43:56;;;;;;;1.88;1.25;;;;;;;6.72;50.19;100227.25;5072654;28;20398;-76
2023/03/28 00:46:25;;;;;;;2.90;1.10;;;;;;;6.75;50.35;100226.91;5072687;28;20466;-76
2023/03/28 00:48:55;;;;;;;1.90;1.27;;;;;;;6.63;50.08;100210.59;5072318;28;20824;-76
2023/03/28 00:51:36;;;;;;;3.80;1.67;;;;;;;6.46;50.62;100228.09;5072454;28;20390;-76
2023/03/28 00:54:05;;;;;;;2.25;1.50;;;;;;;6.24;51.23;100210.19;5071790;28;20379;-76
2023/03/28 00:56:35;;;;;;;2.35;1.70;;;;;;;6.33;50.81;100214.50;5072953;28;20395;-77
2023/03/28 00:59:05;;;;;;;3.25;1.75;;;;;;;6.34;50.84;100212.69;5074081;28;20475;-77
2023/03/28 01:01:31;;;;;;;3.17;1.52;;;;;;;6.12;51.68;100214.84;5076945;28;20379;-77
2023/03/28 01:04:04;;;;;;;1.67;1.40;;;;;;;6.00;51.71;100206.41;5072011;28;20447;-77
2023/03/28 01:06:40;;;;;;;2.97;2.22;;;;;;;5.73;52.28;100244.09;5072300;28;20387;-77
2023/03/28 01:09:07;;;;;;;3.05;1.92;;;;;;;5.92;52.10;100230.81;5072313;28;20371;-77
2023/03/28 01:11:38;;;;;;;2.08;1.70;;;;;;;5.90;51.50;100238.00;5072264;28;20379;-76
2023/03/28 01:14:06;;;;;;;3.10;2.17;;;;;;;6.09;51.64;100236.22;5072041;28;20367;-76
2023/03/28 01:16:32;;;;;;;2.33;2.00;;;;;;;6.20;51.36;100243.88;5072736;28;20386;-76
2023/03/28 01:19:02;;;;;;;2.97;1.60;;;;;;;5.98;51.80;100249.59;5077516;28;20407;-76
2023/03/28 01:21:52;;;;;;;3.55;2.00;;;;;;;6.01;51.32;100251.94;5072073;28;20390;-76
2023/03/28 01:24:23;;;;;;;2.30;1.42;;;;;;;6.06;51.27;100249.69;5071997;28;20858;-76
2023/03/28 01:26:52;;;;;;;2.10;1.40;;;;;;;5.81;51.25;100261.75;5071811;28;20394;-76
2023/03/28 01:29:36;;;;;;;1.60;1.50;;;;;;;5.60;52.01;100264.66;5072177;28;20371;-76
2023/03/28 01:32:13;;;;;;;2.45;1.70;;;;;;;5.86;51.21;100272.66;5071580;28;20449;-77
2023/03/28 01:34:49;;;;;;;2.70;1.80;;;;;;;6.27;51.14;100268.59;5071808;28;20389;-77
2023/03/28 01:37:42;;;;;;;2.92;1.40;;;;;;;6.10;51.20;100254.50;5071890;28;20383;-77
2023/03/28 01:40:26;;;;;;;2.38;1.50;;;;;;;6.04;51.35;100262.97;5071763;28;20391;-77
2023/03/28 01:43:04;;;;;;;1.83;1.40;;;;;;;6.12;50.82;100259.59;5072005;28;20379;-75
2023/03/28 01:45:48;;;;;;;1.58;1.20;;;;;;;5.94;50.86;100255.16;5071731;28;20465;-76
2023/03/28 01:48:28;;;;;;;1.35;1.23;;;;;;;5.77;51.25;100257.78;5071261;28;20480;-76
2023/03/28 01:51:14;;;;;;;2.25;1.30;;;;;;;5.60;51.14;100257.63;5051114;28;20396;-77
2023/03/28 01:53:51;;;;;;;4.15;1.63;;;;;;;5.50;51.51;100259.47;5050657;28;20884;-76
2023/03/28 01:56:37;;;;;;;2.80;1.52;;;;;;;5.75;51.34;100260.56;5051664;28;20853;-76
2023/03/28 01:59:08;;;;;;;1.92;1.10;;;;;;;5.81;50.79;100257.31;5051417;28;20901;-76
2023/03/28 02:01:45;;;;;;;1.80;1.20;;;;;;;5.72;50.94;100238.00;5051240;28;20393;-77
2023/03/28 02:04:19;;;;;;;4.57;3.40;;;;;;;5.69;51.48;100272.50;5051498;28;20793;-77
2023/03/28 02:06:46;;;;;;;7.75;4.13;;;;;;;5.60;51.45;100276.03;5051766;28;20852;-76
2023/03/28 02:09:14;;;;;;;1.30;1.20;;;;;;;5.32;51.35;100275.22;5051394;28;20380;-77
2023/03/28 02:11:40;;;;;;;3.42;1.75;;;;;;;5.46;51.12;100285.25;5051473;28;20451;-77
2023/03/28 02:14:14;;;;;;;4.18;1.52;;;;;;;5.58;50.52;100267.44;5050211;28;20408;-77
2023/03/28 02:16:43;;;;;;;2.67;2.00;;;;;;;5.54;50.84;100295.00;5071290;28;20467;-77
2023/03/28 02:19:11;;;;;;;3.42;1.50;;;;;;;5.41;50.32;100316.41;5072769;28;20420;-77
2023/03/28 02:22:21;;;;;;;2.72;1.60;;;;;;;5.46;50.09;100335.19;5071933;28;20383;-77
2023/03/28 02:24:50;;;;;;;1.52;1.30;;;;;;;5.04;51.34;100327.78;5066122;28;20376;-77
2023/03/28 02:27:17;;;;;;;6.45;2.20;;;;;;;5.40;50.36;100332.31;5053895;28;20387;-77
2023/03/28 02:29:43;;;;;;;3.10;1.50;;;;;;;5.42;50.81;100331.22;5050791;28;20373;-77
2023/03/28 02:32:27;;;;;;;2.47;1.80;;;;;;;5.14;50.52;100367.13;5050118;28;20376;-77
2023/03/28 02:34:54;;;;;;;2.42;1.65;;;;;;;5.08;50.61;100354.59;5051050;28;20800;-77
2023/03/28 02:37:38;;;;;;;5.45;1.92;;;;;;;5.26;50.08;100336.25;5052378;28;20386;-77
2023/03/28 02:40:31;;;;;;;4.00;1.90;;;;;;;5.10;50.56;100369.22;5055543;28;20401;-77
2023/03/28 02:43:35;;;;;;;2.67;2.47;;;;;;;5.16;50.38;100384.41;5055089;28;20407;-77
2023/03/28 02:46:13;;;;;;;1.95;1.80;;;;;;;5.41;50.53;100402.31;5055178;28;20396;-77
2023/03/28 02:48:54;;;;;;;2.42;1.73;;;;;;;5.32;50.14;100409.25;5055072;28;20846;-76
2023/03/28 02:51:39;;;;;;;2.45;1.90;;;;;;;5.13;50.30;100416.25;5058142;28;20431;-76
2023/03/28 02:54:33;;;;;;;2.20;1.50;;;;;;;5.03;50.95;100430.34;5057417;28;20803;-77
2023/03/28 02:57:15;;;;;;;2.03;1.80;;;;;;;5.11;50.62;100433.09;5054802;28;20365;-77
2023/03/28 02:59:51;;;;;;;2.58;2.20;;;;;;;5.29;50.41;100430.56;5054250;28;20400;-77
2023/03/28 03:02:20;;;;;;;3.67;1.90;;;;;;;5.20;50.49;100426.97;5053600;28;20821;-76
2023/03/28 03:04:46;;;;;;;3.38;1.90;;;;;;;5.14;50.17;100436.25;5054862;28;20380;-76
2023/03/28 03:07:12;;;;;;;3.53;2.40;;;;;;;5.25;50.61;100466.81;5054367;28;20726;-77
2023/03/28 03:09:39;;;;;;;4.68;2.05;;;;;;;4.98;50.30;100467.53;5059450;28;21139;-77
2023/03/28 03:12:05;;;;;;;5.85;4.75;;;;;;;5.32;50.28;100454.75;5055213;28;20377;-76
2023/03/28 03:14:31;;;;;;;2.38;2.17;;;;;;;5.46;49.32;100435.09;5053905;28;20384;-77
2023/03/28 03:16:56;;;;;;;4.57;2.70;;;;;;;5.78;49.07;100448.78;5053177;28;20381;-78
2023/03/28 03:19:22;;;;;;;3.40;2.30;;;;;;;5.82;48.96;100440.47;5054256;28;20793;-76
2023/03/28 03:21:48;;;;;;;5.97;2.90;;;;;;;5.72;49.89;100460.72;5053938;28;20381;-78
2023/03/28 03:24:14;;;;;;;8.95;7.47;;;;;;;5.95;49.86;100469.06;5054016;28;20377;-77
2023/03/28 03:26:40;;;;;;;7.13;3.63;;;;;;;5.87;49.05;100468.97;5054189;28;20376;-77
2023/03/28 03:29:06;;;;;;;8.60;4.70;;;;;;;5.85;49.56;100448.09;5052839;28;20442;-76
2023/03/28 03:31:32;;;;;;;10.68;6.90;;;;;;;5.76;49.63;100462.09;5054250;28;20391;-76
2023/03/28 03:33:57;;;;;;;6.70;3.43;;;;;;;5.73;49.56;100478.19;5054084;28;20379;-76
2023/03/28 03:36:23;;;;;;;5.37;2.97;;;;;;;5.54;50.08;100477.25;5054116;28;20381;-76
2023/03/28 03:38:48;;;;;;;4.03;2.23;;;;;;;5.49;50.24;100497.91;5053813;28;20454;-76
2023/03/28 03:41:14;;;;;;;4.55;1.90;;;;;;;5.59;49.60;100487.34;5054068;28;20381;-76
2023/03/28 03:43:40;;;;;;;5.47;3.80;;;;;;;5.41;49.63;100497.78;5053941;28;20369;-77
2023/03/28 03:46:05;;;;;;;7.20;3.40;;;;;;;5.67;49.59;100515.56;5056299;28;20385;-76
2023/03/28 03:48:31;;;;;;;9.55;4.82;;;;;;;5.50;49.06;100502.16;5052360;28;20460;-76
2023/03/28 03:50:56;;;;;;;7.80;3.97;;;;;;;5.38;49.45;100513.00;5060479;28;20390;-76
2023/03/28 03:53:22;;;;;;;4.87;2.83;;;;;;;5.55;48.99;100520.97;5064219;28;20425;-76
2023/03/28 03:55:48;;;;;;;6.20;3.10;;;;;;;5.49;49.22;100534.72;5070547;28;20383;-76
2023/03/28 03:58:13;;;;;;;5.65;3.28;;;;;;;5.46;49.79;100534.16;5058750;28;20412;-76
2023/03/28 04:00:38;;;;;;;4.17;2.30;;;;;;;5.50;49.61;100535.53;5060439;28;20467;-74
2023/03/28 04:03:04;;;;;;;3.10;1.80;;;;;;;5.54;49.22;100547.41;5067459;28;20418;-75
2023/03/28 04:05:30;;;;;;;3.08;1.55;;;;;;;5.60;48.48;100544.25;5056984;28;20395;-77
2023/03/28 04:07:58;;;;;;;4.20;2.70;;;;;;;5.53;48.90;100537.88;5065979;28;20800;-77
2023/03/28 04:10:24;;;;;;;4.63;3.00;;;;;;;5.57;48.91;100546.31;5071534;28;20387;-76
2023/03/28 04:12:49;;;;;;;4.20;2.60;;;;;;;5.51;48.96;100563.47;5062024;28;20708;-77
2023/03/28 04:15:15;;;;;;;8.35;5.97;;;;;;;5.56;48.54;100558.63;5064667;28;20393;-77
2023/03/28 04:17:40;;;;;;;8.45;4.20;;;;;;;5.42;48.37;100564.31;5062978;28;20383;-77
2023/03/28 04:20:12;;;;;;;5.83;4.17;;;;;;;5.24;49.32;100556.28;5063318;28;20401;-78
2023/03/28 04:22:39;;;;;;;7.28;3.95;;;;;;;5.27;49.18;100570.00;5063953;28;20386;-76
2023/03/28 04:25:07;;;;;;;4.73;3.13;;;;;;;5.55;48.94;100570.13;5062111;28;20393;-76
2023/03/28 04:27:32;;;;;;;4.68;3.10;;;;;;;5.57;48.35;100580.50;5066894;28;20389;-78
2023/03/28 04:29:59;;;;;;;4.03;2.87;;;;;;;5.55;48.75;100594.59;5072953;28;20375;-77
2023/03/28 04:32:25;;;;;;;5.53;3.95;;;;;;;5.58;48.36;100597.91;5066126;28;20460;-76
2023/03/28 04:34:50;;;;;;;5.20;2.57;;;;;;;5.33;49.00;100589.63;5065530;28;20401;-77
2023/03/28 04:37:17;;;;;;;4.37;2.80;;;;;;;5.59;48.50;100605.69;5066951;28;20393;-76
2023/03/28 04:39:45;;;;;;;4.22;2.45;;;;;;;5.32;48.59;100594.06;5062147;28;20404;-77
2023/03/28 04:42:15;;;;;;;4.88;2.80;;;;;;;5.21;48.65;100604.72;5063395;28;20404;-77
2023/03/28 04:44:41;;;;;;;3.53;2.70;;;;;;;5.01;49.39;100619.63;5060641;28;20401;-77
2023/03/28 04:47:12;;;;;;;5.67;2.60;;;;;;;5.38;48.65;100605.81;5068083;28;20391;-76
2023/03/28 04:49:38;;;;;;;3.42;2.72;;;;;;;5.46;48.40;100586.75;5070990;28;20387;-77
2023/03/28 04:52:04;;;;;;;5.35;3.25;;;;;;;5.39;48.39;100599.59;5072810;28;20411;-77
2023/03/28 04:54:30;;;;;;;3.15;2.25;;;;;;;5.27;48.45;100592.81;5059374;28;20410;-77
2023/03/28 04:56:55;;;;;;;7.03;3.47;;;;;;;5.09;49.09;100593.50;5067148;28;20869;-76
2023/03/28 04:59:21;;;;;;;7.43;3.00;;;;;;;5.30;49.04;100595.19;5064583;28;20399;-76
2023/03/28 05:01:49;;;;;;;6.10;4.00;;;;;;;5.20;48.16;100596.97;5071967;28;20421;-76
2023/03/28 05:04:19;;;;;;;7.93;4.80;;;;;;;5.18;48.13;100589.22;5068822;28;20389;-78
2023/03/28 05:06:45;;;;;;;4.13;3.22;;;;;;;5.15;48.24;100577.19;5060275;28;20379;-76
2023/03/28 05:09:13;;;;;;;6.00;4.43;;;;;;;5.04;47.99;100573.88;5065501;28;20856;-78
2023/03/28 05:11:39;;;;;;;3.65;3.30;;;;;;;5.23;48.16;100586.19;5062071;28;20411;-77
2023/03/28 05:14:05;;;;;;;4.63;3.20;;;;;;;5.20;47.76;100578.56;5071741;28;20413;-77
2023/03/28 05:16:30;;;;;;;4.10;3.43;;;;;;;5.23;48.24;100583.56;5061407;28;20373;-77
2023/03/28 05:18:56;;;;;;;4.33;3.80;;;;;;;5.30;47.28;100598.63;5068959;28;20402;-76
2023/03/28 05:21:21;;;;;;;4.55;3.90;;;;;;;5.21;47.95;100577.63;5060192;28;20872;-78
2023/03/28 05:23:47;;;;;;;4.20;3.33;;;;;;;5.18;48.09;100589.22;5067551;28;20383;-78
2023/03/28 05:26:12;;;;;;;5.37;3.20;;;;;;;5.24;48.37;100583.44;5070784;28;20383;-77
2023/03/28 05:28:38;;;;;;;4.53;2.60;;;;;;;5.31;48.13;100587.16;5071048;28;20374;-76
2023/03/28 05:31:06;;;;;;;4.80;2.80;;;;;;;5.36;47.69;100589.34;5072667;28;20375;-76
2023/03/28 05:33:50;;;;;;;5.75;3.70;;;;;;;5.29;47.95;100590.88;5071000;28;20370;-78
2023/03/28 05:36:16;;;;;;;4.60;3.17;;;;;;;5.05;48.60;100600.00;5067493;28;20391;-78
2023/03/28 05:38:41;;;;;;;3.37;2.90;;;;;;;4.95;49.13;100599.16;5065725;28;20804;-76
2023/03/28 05:41:07;;;;;;;3.33;2.07;;;;;;;4.82;48.35;100620.41;5065197;28;20379;-77
2023/03/28 05:43:32;;;;;;;2.55;2.15;;;;;;;4.61;49.04;100602.16;5072004;28;20378;-77
2023/03/28 05:45:57;;;;;;;4.73;2.20;;;;;;;4.87;48.48;100591.13;5071910;28;20375;-77
2023/03/28 05:48:23;;;;;;;2.50;1.93;;;;;;;4.96;47.92;100601.66;5057413;28;20361;-77
2023/03/28 05:50:49;;;;;;;3.50;2.40;;;;;;;4.71;48.48;100596.91;5058174;28;20371;-77
2023/03/28 05:53:15;;;;;;;2.50;2.30;;;;;;;4.55;48.66;100607.91;5063213;28;20400;-77
2023/03/28 05:55:41;;;;;;;4.13;2.60;;;;;;;4.78;48.78;100596.22;5057988;28;20785;-76
2023/03/28 05:58:07;;;;;;;2.67;2.05;;;;;;;4.67;48.50;100627.03;5059604;28;20393;-75
2023/03/28 06:00:33;;;;;;;3.67;2.10;;;;;;;4.69;48.18;100602.28;5059581;28;20387;-77
2023/03/28 06:02:59;;;;;;;3.15;2.35;;;;;;;4.50;48.77;100634.59;5059665;28;20372;-76
2023/03/28 06:05:25;;;;;;;2.78;2.00;;;;;;;4.44;49.21;100634.28;5062040;28;20376;-76
2023/03/28 06:07:51;;;;;;;3.90;1.90;;;;;;;4.37;49.04;100629.53;5060642;28;20876;-77
2023/03/28 06:10:16;;;;;;;2.63;1.73;;;;;;;4.45;48.45;100638.53;5060986;28;20375;-77
2023/03/28 06:12:42;;;;;;;7.83;2.87;;;;;;;4.60;48.74;100645.09;5065900;28;20853;-76
2023/03/28 06:15:09;;;;;;;3.63;2.33;;;;;;;4.91;48.12;100650.31;5061692;28;20465;-76
2023/03/28 06:17:34;;;;;;;2.50;2.00;;;;;;;4.94;47.57;100632.47;5067114;28;20550;-76
2023/03/28 06:20:00;;;;;;;3.97;2.10;;;;;;;4.66;48.26;100609.59;5061296;28;20879;-76
2023/03/28 06:22:25;;;;;;;3.72;2.00;;;;;;;4.66;48.35;100633.22;5056224;28;20446;-76
2023/03/28 06:24:51;;;;;;;4.00;2.40;;;;;;;4.52;48.47;100630.03;5066548;28;20367;-76
2023/03/28 06:27:16;;;;;;;4.53;2.47;;;;;;;4.59;48.80;100612.78;5058847;28;20464;-78
2023/03/28 06:29:42;;;;;;;5.10;2.20;;;;;;;4.67;48.13;100648.84;5058492;28;20384;-76
2023/03/28 06:32:07;;;;;;;6.68;3.15;;;;;;;4.45;48.38;100675.28;5069839;28;20736;-77
2023/03/28 06:34:33;;;;;;;3.92;2.55;;;;;;;4.41;48.31;100653.72;5069413;28;20383;-77
2023/03/28 06:37:00;;;;;;;6.33;2.60;;;;;;;4.49;47.85;100679.34;5067470;28;20376;-77
2023/03/28 06:39:26;;;;;;;6.03;2.20;;;;;;;4.48;48.02;100685.53;5054930;28;20952;-78
2023/03/28 06:41:51;;;;;;;6.55;2.40;;;;;;;4.32;48.02;100684.22;5060736;28;20542;-77
2023/03/28 06:44:17;;;;;;;6.30;2.60;;;;;;;4.34;47.79;100702.44;5061009;28;20409;-76
2023/03/28 06:46:42;;;;;;;3.17;2.33;;;;;;;4.52;47.43;100727.16;5061872;28;20367;-77
2023/03/28 06:49:08;;;;;;;3.30;2.50;;;;;;;4.55;47.04;100731.28;5064436;28;20375;-77
2023/03/28 06:51:33;;;;;;;4.87;2.30;;;;;;;4.62;47.05;100747.38;5060186;28;20401;-75
2023/03/28 06:53:59;;;;;;;4.23;2.23;;;;;;;4.42;47.38;100751.69;5070343;28;20677;-79
2023/03/28 06:56:24;;;;;;;3.17;2.47;;;;;;;4.53;46.28;100743.72;5066123;28;20510;-76
2023/03/28 06:58:50;;;;;;;3.05;2.75;;;;;;;4.62;47.12;100763.94;5071244;28;20403;-76
2023/03/28 07:01:15;;;;;;;4.00;2.47;;;;;;;4.75;46.02;100753.22;5061994;28;20390;-75
2023/03/28 07:03:41;;;;;;;2.97;2.33;;;;;;;4.81;46.28;100763.22;5065597;28;20389;-76
2023/03/28 07:06:08;;;;;;;2.50;1.97;;;;;;;4.93;46.11;100756.91;5058425;28;21087;-75
2023/03/28 07:08:34;;;;;;;4.68;2.25;;;;;;;4.85;44.96;100754.09;5052382;28;20381;-76
2023/03/28 07:11:00;;;;;;;3.60;2.00;;;;;;;4.71;45.26;100751.81;5061103;28;20375;-78
2023/03/28 07:13:25;;;;;;;4.32;2.00;;;;;;;4.93;45.17;100751.66;5058419;28;20451;-79
2023/03/28 07:16:00;;;;;;;3.03;2.07;;;;;;;4.93;44.65;100742.94;5058551;28;20462;-77
2023/03/28 07:18:25;;;;;;;3.90;2.08;;;;;;;5.04;44.93;100758.63;5067355;28;20403;-76
2023/03/28 07:20:51;;;;;;;2.95;1.92;;;;;;;4.89;44.94;100760.75;5070090;28;20441;-75
2023/03/28 07:23:16;;;;;;;6.17;1.63;;;;;;;5.06;44.13;100769.81;5066126;28;20840;-78
2023/03/28 07:25:43;;;;;;;5.00;2.50;;;;;;;5.28;44.30;100776.66;5061986;28;20381;-78
2023/03/28 07:28:08;;;;;;;3.58;2.20;;;;;;;5.40;43.93;100766.03;5074795;28;20863;-76
2023/03/28 07:30:34;;;;;;;2.83;1.90;;;;;;;5.34;44.09;100780.56;5064911;28;20379;-76
2023/03/28 07:32:59;;;;;;;6.27;2.40;;;;;;;5.39;43.28;100782.78;5063150;28;20381;-77
2023/03/28 07:35:25;;;;;;;5.80;2.47;;;;;;;5.14;43.87;100777.03;5060743;28;20446;-77
2023/03/28 07:37:50;;;;;;;3.28;1.67;;;;;;;5.14;43.89;100792.81;5074855;28;20376;-77
2023/03/28 07:40:16;;;;;;;2.73;1.53;;;;;;;4.87;44.10;100806.50;5073841;28;20503;-75
2023/03/28 07:42:41;;;;;;;6.93;2.47;;;;;;;5.08;44.33;100804.69;5090096;28;20406;-77
2023/03/28 07:45:07;;;;;;;7.40;2.05;;;;;;;5.11;44.20;100788.66;5074162;28;20426;-77
2023/03/28 07:47:33;;;;;;;2.10;1.52;;;;;;;5.02;44.07;100786.78;5073202;28;20397;-78
2023/03/28 07:49:59;;;;;;;4.13;1.98;;;;;;;5.04;44.12;100807.69;5074063;28;20721;-75
2023/03/28 07:52:25;;;;;;;3.13;1.98;;;;;;;4.89;44.44;100792.28;5074335;28;20415;-77
2023/03/28 07:54:50;;;;;;;4.37;2.10;;;;;;;5.06;44.42;100809.22;5069800;28;20385;-77
2023/03/28 07:57:16;;;;;;;3.73;1.93;;;;;;;5.27;44.02;100808.34;5058554;28;20479;-77
2023/03/28 07:59:41;;;;;;;5.05;2.10;;;;;;;5.04;43.39;100802.44;5057168;28;20435;-77
2023/03/28 08:02:10;;;;;;;3.57;2.10;;;;;;;5.07;44.28;100817.94;5061670;28;20381;-76
2023/03/28 08:04:36;;;;;;;4.18;2.17;;;;;;;5.08;43.81;100835.38;5068792;28;20733;-76
2023/03/28 08:07:02;;;;;;;5.53;2.00;;;;;;;5.17;43.26;100821.44;5066764;28;20865;-77
2023/03/28 08:09:27;;;;;;;2.50;1.93;;;;;;;5.30;43.19;100824.66;5074996;28;20709;-77
2023/03/28 08:11:52;;;;;;;6.70;2.90;;;;;;;5.38;42.27;100817.91;5056893;28;20385;-77
2023/03/28 08:14:18;;;;;;;2.70;2.05;;;;;;;5.23;42.05;100833.22;5054327;28;20372;-76
2023/03/28 08:16:44;;;;;;;5.47;2.53;;;;;;;5.03;43.07;100825.25;5054897;28;20800;-76
2023/03/28 08:19:12;;;;;;;6.03;2.10;;;;;;;5.26;42.68;100831.16;5056456;28;20466;-77
2023/03/28 08:21:37;;;;;;;3.33;1.60;;;;;;;5.29;42.00;100830.06;5070084;28;20382;-76
2023/03/28 08:24:04;;;;;;;2.87;1.90;;;;;;;5.62;42.50;100828.06;5059006;28;20585;-76
2023/03/28 08:26:29;;;;;;;1.73;1.50;;;;;;;5.45;41.83;100850.59;5058618;28;20453;-76
2023/03/28 08:28:57;;;;;;;2.50;1.63;;;;;;;5.34;42.50;100833.94;5054069;28;20464;-77
2023/03/28 08:31:25;;;;;;;3.13;1.90;;;;;;;5.44;42.56;100865.53;5054555;28;20452;-76
2023/03/28 08:33:52;;;;;;;7.00;2.30;;;;;;;5.65;41.88;100862.00;5053229;28;20393;-78
2023/03/28 08:36:20;;;;;;;4.55;2.40;;;;;;;5.75;40.77;100878.66;5053095;28;20388;-77
2023/03/28 08:38:50;;;;;;;3.15;2.00;;;;;;;5.63;40.64;100884.97;5053111;28;20408;-75
2023/03/28 08:41:34;;;;;;;5.53;2.10;;;;;;;5.85;40.12;100882.16;5057142;28;20373;-76
2023/03/28 08:44:18;;;;;;;3.83;1.90;;;;;;;6.19;38.83;100879.16;5055247;28;20391;-78
2023/03/28 08:46:47;;;;;;;4.10;1.70;;;;;;;6.22;39.38;100907.03;5052854;28;20439;-76
2023/03/28 08:49:17;;;;;;;3.35;1.75;;;;;;;6.19;39.12;100871.25;5053059;28;20400;-77
2023/03/28 08:51:47;;;;;;;3.00;1.80;;;;;;;6.27;38.66;100889.03;5052674;28;20443;-78
2023/03/28 08:54:13;;;;;;;6.15;2.42;;;;;;;5.87;39.88;100884.63;5053338;28;20380;-77
2023/03/28 08:56:46;;;;;;;3.38;2.10;;;;;;;6.11;39.49;100871.13;5053871;28;20442;-77
2023/03/28 08:59:15;;;;;;;2.25;1.65;;;;;;;6.15;38.83;100879.59;5052485;28;20487;-76
2023/03/28 09:01:42;;;;;;;5.20;2.22;;;;;;;6.44;38.91;100890.94;5052058;28;20411;-76
2023/03/28 09:04:20;;;;;;;5.83;2.00;;;;;;;6.51;37.88;100864.91;5052657;28;20416;-77
2023/03/28 09:06:51;;;;;;;2.95;1.65;;;;;;;6.29;39.00;100895.81;5052341;28;20384;-77
2023/03/28 09:09:25;;;;;;;4.35;2.42;;;;;;;6.62;38.70;100904.25;5053131;28;20373;-76
2023/03/28 09:12:06;;;;;;;4.93;1.92;;;;;;;6.91;37.54;100908.66;5052931;28;20377;-77
2023/03/28 09:14:44;;;;;;;5.20;2.43;;;;;;;6.55;37.62;100900.50;5052474;28;20376;-75
2023/03/28 09:17:31;;;;;;;3.08;2.15;;;;;;;6.69;37.10;100909.81;5051132;28;20413;-77
2023/03/28 09:20:32;;;;;;;5.45;2.20;;;;;;;6.96;37.24;100892.44;5052372;28;20443;-75
2023/03/28 09:23:33;;;;;;;2.33;1.58;;;;;;;6.79;36.84;100879.00;5052698;28;20380;-76
2023/03/28 09:26:23;;;;;;;2.40;1.70;;;;;;;6.49;37.25;100888.72;5052182;28;20377;-77
2023/03/28 09:28:54;;;;;;;2.63;1.40;;;;;;;6.56;37.40;100927.69;5052518;28;20464;-80
2023/03/28 09:31:26;;;;;;;3.92;1.80;;;;;;;6.63;37.11;100921.72;5052395;28;20380;-76
2023/03/28 09:33:57;;;;;;;3.40;2.38;;;;;;;7.01;35.51;100906.84;5052635;28;20385;-76
2023/03/28 09:36:30;;;;;;;2.75;2.08;;;;;;;6.67;35.21;100904.66;5052490;28;20381;-77
2023/03/28 09:39:02;;;;;;;4.15;1.83;;;;;;;6.79;35.32;100936.97;5052440;28;20456;-77
2023/03/28 09:42:22;;;;;;;4.28;1.77;;;;;;;6.76;34.93;100910.91;5053118;28;20416;-76
2023/03/28 09:45:03;;;;;;;2.90;1.70;;;;;;;7.07;35.00;100929.16;5011584;28;20407;-75
2023/03/28 09:47:29;;;;;;;3.42;1.80;;;;;;;6.85;34.35;100911.88;5034111;28;20384;-76
2023/03/28 09:49:54;;;;;;;4.78;1.65;;;;;;;6.77;35.01;100917.84;5050893;28;20396;-76
2023/03/28 09:52:20;;;;;;;5.63;1.95;;;;;;;6.74;35.03;100936.56;5052126;28;20869;-76
2023/03/28 09:54:47;;;;;;;1.88;1.27;;;;;;;6.67;34.66;100917.84;5051779;28;20719;-75
2023/03/28 09:57:12;;;;;;;3.10;1.38;;;;;;;6.49;34.94;100920.34;5051776;28;20909;-76
2023/03/28 09:59:38;;;;;;;1.73;1.23;;;;;;;6.68;35.03;100929.19;5052286;28;20507;-77
2023/03/28 10:02:04;;;;;;;4.47;2.07;;;;;;;6.79;34.90;100905.38;5052016;28;20434;-76
2023/03/28 10:04:33;;;;;;;2.42;1.33;;;;;;;6.97;35.06;100929.19;5051943;28;20384;-75
2023/03/28 10:07:08;;;;;;;5.07;2.25;;;;;;;7.04;34.74;100922.38;5050588;28;20460;-75
2023/03/28 10:09:34;;;;;;;3.97;1.98;;;;;;;7.23;34.07;100921.50;5051604;28;20404;-75
2023/03/28 10:12:07;;;;;;;3.50;1.80;;;;;;;7.33;34.30;100925.91;5051847;28;20392;-76
2023/03/28 10:14:37;;;;;;;4.95;2.10;;;;;;;7.80;34.39;100931.16;5054950;28;20415;-75
2023/03/28 10:17:13;;;;;;;2.55;1.60;;;;;;;7.52;34.41;100933.75;5054008;28;20438;-78
2023/03/28 10:19:43;;;;;;;4.10;1.58;;;;;;;7.15;34.13;100923.19;5051359;28;20458;-75
2023/03/28 10:22:26;;;;;;;2.60;1.65;;;;;;;7.32;34.40;100924.25;5052254;28;20381;-76
2023/03/28 10:24:52;;;;;;;5.78;2.03;;;;;;;7.24;35.12;100917.91;5063035;28;20436;-76
2023/03/28 10:27:24;;;;;;;4.87;1.83;;;;;;;7.29;34.92;100935.91;5062195;28;20381;-75
2023/03/28 10:29:55;;;;;;;3.15;1.50;;;;;;;7.42;34.74;100935.63;5060365;28;20368;-75
2023/03/28 10:32:28;;;;;;;3.08;1.70;;;;;;;7.57;34.50;100933.34;5061980;28;20377;-75
2023/03/28 10:35:22;;;;;;;4.35;1.98;;;;;;;7.63;33.99;100894.03;5053410;28;20385;-75
2023/03/28 10:37:53;;;;;;;3.45;2.10;;;;;;;7.71;34.66;100932.84;5048704;28;20403;-76
2023/03/28 10:40:19;;;;;;;2.85;1.70;;;;;;;7.44;34.01;100949.50;5052680;28;20411;-76
2023/03/28 10:42:48;;;;;;;2.50;1.50;;;;;;;7.59;35.16;100942.75;5051036;28;20389;-76
2023/03/28 10:45:42;;;;;;;4.13;1.67;;;;;;;7.30;34.33;100934.94;5052223;28;20399;-77
2023/03/28 10:48:24;;;;;;;2.85;1.30;;;;;;;7.50;34.46;100930.44;5051041;28;20380;-76
2023/03/28 10:50:53;;;;;;;3.15;1.80;;;;;;;7.12;34.83;100934.84;5051719;28;20864;-74
2023/03/28 10:53:51;;;;;;;4.18;1.98;;;;;;;7.26;35.12;100926.50;5050629;28;20415;-75
2023/03/28 10:56:23;;;;;;;4.30;2.10;;;;;;;7.53;34.31;100919.59;5051020;28;20384;-76
2023/03/28 10:59:25;;;;;;;4.03;1.75;;;;;;;7.59;34.31;100915.56;5052195;28;20419;-75
2023/03/28 11:02:05;;;;;;;3.72;1.98;;;;;;;7.79;33.81;100954.06;5054508;28;20376;-76
2023/03/28 11:04:50;;;;;;;4.82;2.10;;;;;;;7.68;34.22;100964.81;5054952;28;20461;-75
2023/03/28 11:07:21;;;;;;;4.10;1.92;;;;;;;7.73;33.84;100935.34;5054416;28;20376;-75
2023/03/28 11:10:25;;;;;;;6.07;1.95;;;;;;;7.88;33.74;100927.78;5054714;28;20428;-77
2023/03/28 11:13:30;;;;;;;4.63;2.08;;;;;;;7.66;33.14;100928.00;5013268;28;20388;-75
2023/03/28 11:16:10;;;;;;;4.20;1.83;;;;;;;7.69;33.10;100926.91;5054421;28;20368;-75
2023/03/28 11:18:41;;;;;;;4.55;1.92;;;;;;;7.77;32.93;100932.25;5054550;28;20404;-78
2023/03/28 11:21:31;;;;;;;3.22;1.80;;;;;;;7.55;33.69;100925.56;5054763;28;20388;-76
2023/03/28 11:24:15;;;;;;;3.27;1.70;;;;;;;8.03;33.74;100950.03;5054914;28;20421;-76
2023/03/28 11:26:48;;;;;;;4.90;1.70;;;;;;;8.00;33.52;100931.88;5054096;28;20388;-76
2023/03/28 11:30:10;;;;;;;4.47;2.10;;;;;;;7.99;34.32;100946.03;5054298;28;20397;-75
2023/03/28 11:32:47;;;;;;;3.87;1.70;;;;;;;7.75;34.07;100950.06;5072603;28;20740;-75
2023/03/28 11:35:21;;;;;;;5.63;2.05;;;;;;;7.55;34.32;100972.22;5069916;28;21175;-76
2023/03/28 11:37:46;;;;;;;4.82;1.85;;;;;;;7.37;35.24;100945.75;5053814;28;20398;-75
2023/03/28 11:40:30;;;;;;;3.28;1.95;;;;;;;7.67;35.70;100957.88;5053981;28;20836;-75
2023/03/28 11:43:01;;;;;;;4.35;1.88;;;;;;;7.51;35.36;100947.94;5053746;28;20391;-75
2023/03/28 11:45:32;;;;;;;4.25;2.15;;;;;;;7.53;35.80;100945.16;5055990;28;20395;-77
2023/03/28 11:48:27;;;;;;;6.47;2.63;;;;;;;7.66;35.09;100928.00;5073907;28;20371;-75
2023/03/28 11:51:13;;;;;;;5.37;2.00;;;;;;;7.65;35.19;100946.63;5071891;28;20379;-75
2023/03/28 11:53:46;;;;;;;4.18;2.10;;;;;;;7.77;34.98;100987.69;5070626;28;20480;-75